Thunder radar more information blitzortung!


Radar de pluja more information rain snow radar


Visita la nostra xarxa de llocs de meteo:

Template documentation
and downloads

And another site



No particular awareness of the weather is required.    There are no Weather-warnings

Pagina Historial Weather Underground text

Diari Resum Setembre 8, 2017 Unitats:  Mètric    Imperial   Tant
« Previous Dia
SegĂźent Dia »
Diari Setmana Mensual Anual Personalitzada
  Maxima: Minima: Media:
Temperatura: -17.8 °C -8.7 °C -5.7 °C
Punt de rosada: -17.8 °C -11.3 °C -10.4 °C
Humitat: Humidity % 44 % 58 %
Wind Speed: 0 km/h 0 km/h 11.7 km/h
RĂ fegues de vent: 0 km/h - -
Vent:- - SE
Pression baro: 0 hPa 34029.3 hPa -
Precipitacions: 0 mm    
Historical Graphs
 
 
Dades de taula per Setembre 8, 2017
Temps Temperatura Punt de rosada Pression baro Vent Wind Speed RĂ fegues de vent Humitat Rainfall Rate (Hourly)
-17.8 °C -17.8 °C 0 hPa Calm     Humidity % 0 mm
00:01 -6.8 °C -10.5 °C 34361.1 hPa West 6 km/h 6 km/h 65 % 0 mm
00:06 -6.8 °C -10.6 °C 34361.1 hPa West 3.7 km/h 3.7 km/h 65 % 0 mm
10:29 -8.7 °C -10.9 °C 34327.3 hPa West 3.1 km/h   77 % 0 mm
10:30 -8.7 °C -10.9 °C 34327.3 hPa West 3.1 km/h   77 % 0 mm
10:31 -8.7 °C -10.9 °C 34327.3 hPa West 3.1 km/h   77 % 0 mm
10:36 -7.1 °C -10.3 °C 34361.1 hPa West 3.7 km/h   69 % 0 mm
10:41 -7 °C -10.2 °C 34361.1 hPa SSE 6 km/h 6 km/h 69 % 0 mm
10:46 -6.9 °C -10.3 °C 34361.1 hPa Calm     68 % 0 mm
10:51 -6.7 °C -10.2 °C 34361.1 hPa ENE 9 km/h 9 km/h 67 % 0 mm
10:56 -6.6 °C -10.2 °C 34361.1 hPa NE 9 km/h 9 km/h 66 % 0 mm
11:01 -6.4 °C -10.1 °C 34361.1 hPa ENE 9 km/h 9 km/h 66 % 0 mm
11:06 -6.4 °C -10.1 °C 34361.1 hPa East 9 km/h 9 km/h 66 % 0 mm
11:11 -6.2 °C -9.9 °C 34361.1 hPa NE 9 km/h 9 km/h 66 % 0 mm
11:16 -6.2 °C -9.9 °C 34361.1 hPa ENE 9 km/h 9 km/h 66 % 0 mm
11:21 -6.1 °C -9.7 °C 34361.1 hPa ENE 9 km/h 9 km/h 66 % 0 mm
11:26 -5.8 °C -9.5 °C 34361.1 hPa NW 6 km/h 6 km/h 66 % 0 mm
11:31 -5.7 °C -9.6 °C 34361.1 hPa ENE 9 km/h 9 km/h 65 % 0 mm
11:36 -5.5 °C -9.5 °C 34361.1 hPa ENE 15.6 km/h 15.6 km/h 64 % 0 mm
11:41 -5.4 °C -9.4 °C 34361.1 hPa NNE 15 km/h 15 km/h 64 % 0 mm
11:46 -5.5 °C -9.5 °C 34361.1 hPa SW 15 km/h 15 km/h 64 % 0 mm
11:51 -5.3 °C -9.3 °C 34361.1 hPa NNE 17.9 km/h 17.9 km/h 64 % 0 mm
11:56 -5.2 °C -9.2 °C 34361.1 hPa NE 14.5 km/h 14.5 km/h 64 % 0 mm
12:01 -5.2 °C -9.4 °C 34361.1 hPa SSE 15 km/h 15 km/h 62 % 0 mm
12:06 -4.9 °C -9.2 °C 34361.1 hPa NNE 9.8 km/h 9.8 km/h 62 % 0 mm
12:11 -5 °C -9.3 °C 34327.3 hPa SW 6.8 km/h 6.8 km/h 62 % 0 mm
12:16 -4.5 °C -8.8 °C 34327.3 hPa WNW 6 km/h 6 km/h 62 % 0 mm
12:21 -4.6 °C -9.1 °C 34327.3 hPa East 12.7 km/h 12.7 km/h 61 % 0 mm
12:26 -4.9 °C -9.2 °C 34327.3 hPa ESE 15 km/h 15 km/h 62 % 0 mm
12:31 -5.1 °C -9.3 °C 34327.3 hPa East 17.9 km/h 17.9 km/h 62 % 0 mm
12:36 -5 °C -9.4 °C 34327.3 hPa SE 15 km/h 15 km/h 61 % 0 mm
12:41 -4.8 °C -9.1 °C 34327.3 hPa SSE 15.6 km/h 15.6 km/h 62 % 0 mm
12:46 -4.8 °C -9.2 °C 34327.3 hPa South 15 km/h 15 km/h 61 % 0 mm
12:51 -4.9 °C -9.2 °C 34327.3 hPa ESE 17.9 km/h 17.9 km/h 62 % 0 mm
12:56 -4.9 °C -9.2 °C 34293.4 hPa East 11.9 km/h 11.9 km/h 62 % 0 mm
13:01 -4.7 °C -8.8 °C 34293.4 hPa SE 11.9 km/h 12.2 km/h 63 % 0 mm
13:06 -4.6 °C -8.8 °C 34327.3 hPa ESE 17.9 km/h 17.9 km/h 62 % 0 mm
13:11 -4.7 °C -9.1 °C 34327.3 hPa East 20.9 km/h 20.9 km/h 61 % 0 mm
13:16 -4.7 °C -9.1 °C 34327.3 hPa ESE 15 km/h 15 km/h 61 % 0 mm
13:21 -4.7 °C -9.1 °C 34327.3 hPa SSE 15 km/h 15 km/h 61 % 0 mm
13:26 -4.7 °C -9 °C 34327.3 hPa WSW 17.9 km/h 17.9 km/h 62 % 0 mm
13:31 -4.8 °C -9.1 °C 34327.3 hPa South 23.8 km/h 23.8 km/h 62 % 0 mm
13:36 -4.8 °C -9.1 °C 34327.3 hPa ESE 23.8 km/h 23.8 km/h 62 % 0 mm
13:41 -4.8 °C -9.2 °C 34327.3 hPa East 26.9 km/h 26.9 km/h 61 % 0 mm
13:46 -4.8 °C -9.2 °C 34327.3 hPa East 12.7 km/h 12.7 km/h 61 % 0 mm
13:51 -4.7 °C -9.1 °C 34293.4 hPa East 15.3 km/h 15.3 km/h 61 % 0 mm
13:56 -4.7 °C -9.1 °C 34293.4 hPa South 20.9 km/h 20.9 km/h 61 % 0 mm
14:01 -4.6 °C -9 °C 34293.4 hPa SSW 17.9 km/h 17.9 km/h 61 % 0 mm
14:06 -4.7 °C -9.1 °C 34293.4 hPa ENE 20.9 km/h 20.9 km/h 61 % 0 mm
14:11 -4.8 °C -9.2 °C 34293.4 hPa ESE 15 km/h 15 km/h 61 % 0 mm
14:16 -4.7 °C -9.3 °C 34293.4 hPa East 31.4 km/h 31.4 km/h 60 % 0 mm
14:21 -4.7 °C -9.2 °C 34293.4 hPa ESE 17.9 km/h 17.9 km/h 60 % 0 mm
14:26 -4.6 °C -9.1 °C 34293.4 hPa ESE 22 km/h 22 km/h 60 % 0 mm
14:31 -4.3 °C -9.2 °C 34293.4 hPa SW 17.9 km/h 17.9 km/h 58 % 0 mm
14:36 -4.4 °C -9.3 °C 34256.2 hPa NE 26.9 km/h 26.9 km/h 58 % 0 mm
14:41 -4.4 °C -9.2 °C 34256.2 hPa SE 25.4 km/h 25.4 km/h 59 % 0 mm
14:46 -4.4 °C -9.5 °C 34256.2 hPa ESE 26.9 km/h 26.9 km/h 57 % 0 mm
14:51 -4.3 °C -9.3 °C 34256.2 hPa East 25.4 km/h 25.4 km/h 57 % 0 mm
14:56 -4.5 °C -9.7 °C 34256.2 hPa ENE 23.8 km/h 23.8 km/h 56 % 0 mm
15:01 -4.5 °C -9.7 °C 34256.2 hPa SE 23.8 km/h 23.8 km/h 56 % 0 mm
15:06 -4.3 °C -9.6 °C 34256.2 hPa East 17.9 km/h 17.9 km/h 55 % 0 mm
15:11 -4.2 °C -9.7 °C 34256.2 hPa ESE 23.8 km/h 23.8 km/h 54 % 0 mm
15:16 -4.1 °C -9.8 °C 34256.2 hPa SSE 26.9 km/h 26.9 km/h 53 % 0 mm
15:21 -4.1 °C -9.8 °C 34222.3 hPa ESE 23.8 km/h 23.8 km/h 53 % 0 mm
15:26 -4.3 °C -10.1 °C 34222.3 hPa East 26.9 km/h 26.9 km/h 52 % 0 mm
15:31 -4.3 °C -10.2 °C 34222.3 hPa ESE 15.3 km/h 15.3 km/h 52 % 0 mm
15:36 -4.2 °C -10.1 °C 34256.2 hPa South 23.8 km/h 23.8 km/h 52 % 0 mm
15:41 -4.3 °C -9.9 °C 34256.2 hPa SE 15 km/h 15.3 km/h 53 % 0 mm
15:46 -4.1 °C -9.9 °C 34256.2 hPa East 23.8 km/h 23.8 km/h 52 % 0 mm
15:51 -4.1 °C -10.1 °C 34256.2 hPa ENE 23.8 km/h 23.8 km/h 51 % 0 mm
15:56 -4.2 °C -10.5 °C 34256.2 hPa ESE 32.8 km/h 32.8 km/h 49 % 0 mm
16:01 -4.1 °C -10.4 °C 34256.2 hPa ESE 26.9 km/h 26.9 km/h 49 % 0 mm
16:06 -4.2 °C -10.7 °C 34293.4 hPa ESE 29.8 km/h 29.8 km/h 48 % 0 mm
16:11 -4.1 °C -10.6 °C 34293.4 hPa ESE 23.8 km/h 23.8 km/h 48 % 0 mm
16:16 -3.9 °C -10.5 °C 34293.4 hPa ESE 23.8 km/h 23.8 km/h 48 % 0 mm
16:21 -3.9 °C -10.5 °C 34256.2 hPa SE 20.9 km/h 20.9 km/h 48 % 0 mm
16:26 -3.8 °C -10.6 °C 34256.2 hPa SSE 32.8 km/h 32.8 km/h 47 % 0 mm
16:31 -3.7 °C -10.4 °C 34256.2 hPa ESE 23.8 km/h 23.8 km/h 47 % 0 mm
16:36 -3.4 °C -10.2 °C 34256.2 hPa ENE 9 km/h 9 km/h 47 % 0 mm
16:41 -3.7 °C -10.7 °C 34256.2 hPa East 20.9 km/h 20.9 km/h 46 % 0 mm
16:46 -3.9 °C -11 °C 34256.2 hPa ENE 26.9 km/h 26.9 km/h 45 % 0 mm
16:51 -4 °C -10.9 °C 34222.3 hPa ESE 17.9 km/h 17.9 km/h 46 % 0 mm
16:52 -3.9 °C -10.8 °C 34222.3 hPa ESE 17.9 km/h 17.9 km/h 46 % 0 mm
16:57 -3.8 °C -10.9 °C 34222.3 hPa ESE 23.8 km/h 23.8 km/h 45 % 0 mm
17:02 -4 °C -10.9 °C 34222.3 hPa East 29.8 km/h 29.8 km/h 46 % 0 mm
17:07 -4 °C -11.1 °C 34222.3 hPa ESE 26.9 km/h 26.9 km/h 45 % 0 mm
17:12 -3.9 °C -11 °C 34222.3 hPa ESE 29.8 km/h 29.8 km/h 45 % 0 mm
17:17 -3.9 °C -11.2 °C 34222.3 hPa ESE 31.9 km/h 31.9 km/h 44 % 0 mm
17:22 -4.1 °C -11.2 °C 34222.3 hPa SE 32.8 km/h 32.8 km/h 45 % 0 mm
17:27 -4.2 °C -10.9 °C 34222.3 hPa ESE 20.9 km/h 20.9 km/h 47 % 0 mm
17:32 -4.2 °C -10.9 °C 34222.3 hPa ENE 33.2 km/h 33.2 km/h 47 % 0 mm
17:37 -4.3 °C -10.9 °C 34198.6 hPa ESE 26.9 km/h 26.9 km/h 47 % 0 mm
17:42 -4.3 °C -10.9 °C 34198.6 hPa ESE 20.9 km/h 20.9 km/h 47 % 0 mm
17:47 -4.3 °C -10.9 °C 34198.6 hPa East 17.9 km/h 17.9 km/h 47 % 0 mm
17:52 -4.3 °C -10.8 °C 34222.3 hPa SSE 20.9 km/h 20.9 km/h 48 % 0 mm
17:57 -4.3 °C -10.8 °C 34222.3 hPa ESE 20.9 km/h 20.9 km/h 48 % 0 mm
18:02 -4.2 °C -10.7 °C 34222.3 hPa South 11.9 km/h 11.9 km/h 48 % 0 mm
18:07 -4.2 °C -10.7 °C 34198.6 hPa SSE 12.7 km/h 14 km/h 48 % 0 mm
18:12 -4.4 °C -10.8 °C 34198.6 hPa ENE 23.8 km/h 23.8 km/h 49 % 0 mm
18:17 -4.4 °C -10.8 °C 34198.6 hPa ENE 15 km/h 15 km/h 49 % 0 mm
18:22 -4.6 °C -10.9 °C 34198.6 hPa East 20.9 km/h 20.9 km/h 49 % 0 mm
18:27 -4.6 °C -10.7 °C 34198.6 hPa ESE 20.9 km/h 20.9 km/h 50 % 0 mm
18:32 -4.7 °C -10.8 °C 34198.6 hPa SE 20.9 km/h 20.9 km/h 50 % 0 mm
18:37 -4.7 °C -10.8 °C 34198.6 hPa East 20.3 km/h 20.3 km/h 50 % 0 mm
18:42 -4.8 °C -10.9 °C 34198.6 hPa ESE 20.9 km/h 20.9 km/h 50 % 0 mm
18:47 -4.8 °C -10.9 °C 34198.6 hPa ESE 16.1 km/h 16.1 km/h 50 % 0 mm
18:52 -4.8 °C -10.9 °C 34198.6 hPa East 23.8 km/h 23.8 km/h 50 % 0 mm
18:57 -4.9 °C -11 °C 34198.6 hPa ESE 17.9 km/h 17.9 km/h 50 % 0 mm
19:02 -4.9 °C -10.8 °C 34198.6 hPa ESE 22 km/h 22 km/h 51 % 0 mm
19:07 -4.9 °C -10.9 °C 34164.7 hPa East 12.2 km/h 12.2 km/h 51 % 0 mm
19:12 -4.9 °C -10.7 °C 34164.7 hPa ESE 15 km/h 15 km/h 52 % 0 mm
19:15 -7.1 °C -11.1 °C 34361.1 hPa Calm     63 % 0 mm
19:17 -5 °C -10.8 °C 34164.7 hPa ESE 15 km/h 15 km/h 52 % 0 mm
19:22 -5 °C -10.8 °C 34198.6 hPa SSE 16.1 km/h 16.1 km/h 52 % 0 mm
19:25 -7.1 °C -11.1 °C 34198.6 hPa Calm     63 % 0 mm
19:27 -5.1 °C -10.7 °C 34198.6 hPa ESE 17.9 km/h 17.9 km/h 53 % 0 mm
19:32 -5.1 °C -10.7 °C 34198.6 hPa ESE 15 km/h 15 km/h 53 % 0 mm
19:35 -7.2 °C -11.2 °C 34198.6 hPa Calm     63 % 0 mm
19:37 -5.2 °C -10.6 °C 34198.6 hPa East 17.9 km/h 17.9 km/h 54 % 0 mm
19:38 -5.2 °C -10.6 °C 34198.6 hPa ESE 15 km/h 15 km/h 54 % 0 mm
19:43 -5.2 °C -10.7 °C 34198.6 hPa ESE 15.6 km/h 15.6 km/h 54 % 0 mm
19:45 -7.2 °C -11.2 °C 34198.6 hPa Calm   2.6 km/h 63 % 0 mm
19:48 -5.3 °C -10.6 °C 34198.6 hPa SE 11.9 km/h 11.9 km/h 55 % 0 mm
19:53 -5.3 °C -10.6 °C 34198.6 hPa ESE 15 km/h 15 km/h 55 % 0 mm
19:55 -7.2 °C -11.2 °C 34198.6 hPa Calm     63 % 0 mm
19:58 -5.4 °C -10.7 °C 34198.6 hPa ESE 12.7 km/h 12.7 km/h 55 % 0 mm
20:03 -5.4 °C -10.7 °C 34198.6 hPa East 8 km/h 8 km/h 55 % 0 mm
20:05 -7.2 °C -11.2 °C 34198.6 hPa Calm     63 % 0 mm
20:08 -5.4 °C -10.7 °C 34198.6 hPa ESE 11.9 km/h 11.9 km/h 55 % 0 mm
20:13 -5.5 °C -10.8 °C 34198.6 hPa ESE 6 km/h 6 km/h 55 % 0 mm
20:15 -7.1 °C -11.1 °C 34198.6 hPa SW 2.6 km/h 5.1 km/h 63 % 0 mm
20:18 -5.6 °C -10.7 °C 34198.6 hPa ESE 11.1 km/h 11.1 km/h 56 % 0 mm
20:23 -5.6 °C -10.8 °C 34198.6 hPa East 6 km/h 6 km/h 55 % 0 mm
20:25 -7.1 °C -10.9 °C 34164.7 hPa Calm   2.6 km/h 64 % 0 mm
20:28 -5.7 °C -10.8 °C 34198.6 hPa SW 6 km/h 6 km/h 56 % 0 mm
20:33 -5.8 °C -10.7 °C 34198.6 hPa SSW 3.1 km/h   57 % 0 mm
20:35 -7.1 °C -10.9 °C 34164.7 hPa Calm   2.6 km/h 64 % 0 mm
20:38 -5.8 °C -10.8 °C 34198.6 hPa Calm     57 % 0 mm
20:43 -5.9 °C -10.8 °C 34198.6 hPa Calm     57 % 0 mm
20:45 -7.2 °C -11.1 °C 34164.7 hPa WSW 2.6 km/h 5.1 km/h 64 % 0 mm
20:48 -5.9 °C -10.9 °C 34198.6 hPa Calm     57 % 0 mm
20:53 -6 °C -10.9 °C 34198.6 hPa Calm     57 % 0 mm
20:55 -7.3 °C -11 °C 34130.9 hPa SW 5.1 km/h 5.1 km/h 65 % 0 mm
20:58 -6 °C -10.9 °C 34198.6 hPa Calm     57 % 0 mm
21:03 -6.1 °C -11 °C 34198.6 hPa Calm     57 % 0 mm
21:05 -7.3 °C -10.9 °C 34130.9 hPa Calm   2.6 km/h 66 % 0 mm
21:08 -6.1 °C -11 °C 34198.6 hPa Calm     57 % 0 mm
21:13 -6.2 °C -11 °C 34198.6 hPa SW 6.3 km/h 6.3 km/h 58 % 0 mm
21:15 -7.4 °C -11.1 °C 34130.9 hPa Calm   2.6 km/h 66 % 0 mm
21:18 -6.3 °C -11.1 °C 34198.6 hPa SSW 6 km/h 6 km/h 58 % 0 mm
21:23 -6.4 °C -11.2 °C 34198.6 hPa West 6 km/h 6 km/h 58 % 0 mm
21:25 -7.4 °C -11.1 °C 34130.9 hPa WSW 2.6 km/h 5.1 km/h 66 % 0 mm
21:28 -6.4 °C -11.2 °C 34198.6 hPa SW 4.2 km/h   58 % 0 mm
21:33 -6.5 °C -11.2 °C 34198.6 hPa SW 6 km/h   58 % 0 mm
21:35 -7.4 °C -10.9 °C 34130.9 hPa NE 2.6 km/h 5.1 km/h 67 % 0 mm
21:38 -6.6 °C -11.3 °C 34198.6 hPa WSW 3.1 km/h   58 % 0 mm
21:43 -6.6 °C -11.3 °C 34198.6 hPa Calm     58 % 0 mm
21:45 -7.4 °C -10.9 °C 34097 hPa Calm   5.1 km/h 67 % 0 mm
21:48 -6.6 °C -11.3 °C 34198.6 hPa Calm     58 % 0 mm
21:53 -6.7 °C -11.3 °C 34198.6 hPa WSW 3.1 km/h   59 % 0 mm
21:55 -7.4 °C -10.8 °C 34130.9 hPa Calm   5.1 km/h 68 % 0 mm
21:58 -6.7 °C -11.3 °C 34198.6 hPa Calm     59 % 0 mm
22:03 -6.7 °C -11.2 °C 34198.6 hPa Calm     60 % 0 mm
22:05 -7.4 °C -10.6 °C 34130.9 hPa Calm     69 % 0 mm
22:08 -6.8 °C -11.2 °C 34198.6 hPa Calm     60 % 0 mm
22:13 -6.8 °C -11.3 °C 34198.6 hPa Calm     60 % 0 mm
22:15 -7.4 °C -10.6 °C 34097 hPa NNE 2.6 km/h 5.1 km/h 69 % 0 mm
22:18 -6.8 °C -11.3 °C 34198.6 hPa Calm     60 % 0 mm
22:23 -6.9 °C -11.3 °C 34198.6 hPa Calm     60 % 0 mm
22:25 -7.4 °C -10.5 °C 34097 hPa NNE 2.6 km/h 5.1 km/h 70 % 0 mm
22:28 -6.9 °C -11.3 °C 34198.6 hPa NW 6 km/h 6 km/h 60 % 0 mm
22:33 -6.8 °C -11.3 °C 34198.6 hPa NW 3.1 km/h 3.1 km/h 60 % 0 mm
22:35 -7.4 °C -10.6 °C 34097 hPa NNE 2.6 km/h 2.6 km/h 70 % 0 mm
22:38 -6.8 °C -11.3 °C 34198.6 hPa Calm     60 % 0 mm
22:43 -6.8 °C -11.2 °C 34198.6 hPa Calm     61 % 0 mm
22:45 -7.4 °C -10.6 °C 34097 hPa NNE 2.6 km/h 7.7 km/h 70 % 0 mm
22:48 -6.8 °C -11.2 °C 34198.6 hPa Calm     61 % 0 mm
22:53 -6.9 °C -11.2 °C 34198.6 hPa Calm     61 % 0 mm
22:55 -7.5 °C -10.4 °C 34063.2 hPa NE 7.7 km/h 10.3 km/h 71 % 0 mm
22:58 -6.8 °C -11.2 °C 34198.6 hPa Calm     61 % 0 mm
23:03 -6.8 °C -11.3 °C 34198.6 hPa Calm     60 % 0 mm
23:05 -7.6 °C -10.5 °C 34063.2 hPa NE 7.7 km/h 10.3 km/h 71 % 0 mm
23:08 -6.8 °C -11.1 °C 34198.6 hPa Calm     61 % 0 mm
23:13 -6.7 °C -11.2 °C 34198.6 hPa NW 3.7 km/h 3.7 km/h 60 % 0 mm
23:15 -7.6 °C -10.4 °C 34063.2 hPa NNE 5.1 km/h 10.3 km/h 72 % 0 mm
23:18 -6.7 °C -11.3 °C 34198.6 hPa NW 3.1 km/h 3.1 km/h 59 % 0 mm
23:23 -6.7 °C -11.1 °C 34198.6 hPa Calm     60 % 0 mm
23:25 -7.6 °C -10.4 °C 34063.2 hPa NE 7.7 km/h 10.3 km/h 72 % 0 mm
23:28 -6.7 °C -11.1 °C 34198.6 hPa Calm     60 % 0 mm
23:33 -6.7 °C -11.1 °C 34198.6 hPa Calm     60 % 0 mm
23:35 -7.6 °C -10.3 °C 34063.2 hPa NNE 2.6 km/h 10.3 km/h 73 % 0 mm
23:38 -6.7 °C -11.1 °C 34164.7 hPa Calm     60 % 0 mm
23:43 -6.7 °C -11 °C 34164.7 hPa SSW 3.1 km/h 3.7 km/h 61 % 0 mm
23:45 -7.6 °C -10.3 °C 34029.3 hPa NNW 2.6 km/h 7.7 km/h 73 % 0 mm
23:48 -6.9 °C -11.2 °C 34164.7 hPa SSW 3.1 km/h 3.1 km/h 61 % 0 mm
23:53 -7 °C -11.3 °C 34198.6 hPa SW 5.1 km/h   61 % 0 mm
23:55 -7.6 °C -10.3 °C 34063.2 hPa NNW 2.6 km/h 5.1 km/h 73 % 0 mm
23:58 -7.1 °C -11.3 °C 34198.6 hPa SW 3.7 km/h 3.7 km/h 61 % 0 mm
Meteo Sesrovires
Elogis d' Weather Underground - 1.5 mb

Guio original per  Jim McMurry - jmcmurry@mwt.net Adaptat per a la plantilla per  Wim van der Kuil - Leuven-Template.eu

Trobareu la nostra informacio del temps tambe a:

Weather Underground

AWEKAS